Airfield :
LOGIN :

Register | Disclaimer

   EN    FR    IT 

 










Legend :    VFR   Marginal VFR   IFR   Intensive IFR   Very Intensive IFR
Visi :
Ceiling :
>= 8 km
>= 3000ft
5 to 8 km
1000 to 3000 ft
1500m to 5 km
500 to 1000 ft
800 to 1500m
200 to 500 ft
< 800m
< 200 ft
Symbols :   Thunderstorms  Fog  Heavy snow  Heavy precipitations  Wind > 20 kt
SIGMETs :     Misc.  Thunderstorms  Icing  Turbulence  Mountain Waves  Volcanic Ashes






- Airport Elevation : 17 ft
- IATA code : CPH


EKCH - København - Kastrup (Copenhagen)

CURRENT METAR :
  • 162120Z 20011KT 6000 SHRA FEW040CB BKN065 14/12 Q1010 BECMG FEW040

EXPIRED METARs :
  • 162050Z 19011KT 9999 -SHRA FEW040CB BKN055 15/13 Q1010 TEMPO SHRA
  • 162026Z 14011KT 9999 FEW040CB BKN070 16/13 Q1009 TEMPO SHRA
  • 161950Z AUTO 12011KT 9999 FEW100/// 15/13 Q1009 TEMPO SHRA SCT040CB
  • 161920Z AUTO 11012KT 9999 FEW063/// BKN100/// 15/13 Q1009 TEMPO SCT040CB
  • 161850Z AUTO 11009KT 9999 OVC091/// 15/13 Q1009 NOSIG
  • 161820Z AUTO 10009KT 070V130 9999 OVC075/// 15/13 Q1008 RESHRA NOSIG
  • 161750Z 14013KT 9999 -SHRA FEW040CB BKN070 16/14 Q1009 TEMPO SHRA
  • 161720Z 14012KT 9999 -SHRA FEW040CB BKN080 16/13 Q1009 TEMPO SHRA
  • 161650Z 17010KT 9999 FEW040CB BKN080 16/13 Q1009 TEMPO MOD SHRA

TAF TAF EKCH
Valid from the 16 at 18:00 until the 17 at 18:00 UTC


161741Z 1618/1718 14012KT CAVOK
TEMPO 1618/1701 SHRA SCT040CB
BECMG 1700/1703 21005KT



MET'MAP, your aeronautical weather chart ! - Copyright ORBIFLY December 2007 - Disclaimer

ORBIFLY MET'MAP TEAM :

Programming & Development : Alexandra Zaïnal
Original concept : Baudouin d'Aumeries
Technical & hardware support : Manuel Goepfert
Assistance : Marc-Olivier Méhu




SOURCES & CREDITS :

   NOAA